Air Navigation Services of Czech Republic
Airport: LKMT Updated:  18.07.2018 18:01:07  UTC
 METAR LKMT 18.07. 18:00 ...
METAR LKMT 181800Z 34013KT 9999 -RA BKN016 BKN040 18/15 Q1012 NOSIG RMK REG QNH 1009=
 TAF LKMT 18.07. 17:00 ...
TAF LKMT 181700Z 1818/2000 32012KT 9999 BKN017      TEMPO 1818/1822 35016G34KT      TEMPO 1818/1914 4000 RA BKN012      PROB40 TEMPO 1818/1912 2500 RA BKN008      BECMG 1901/1903 35008KT      BECMG 1914/1916 9999 BKN023      BECMG 1920/1922 VRB02KT 5000 BR BKN012=